Airfield :
LOGIN :

Register | Disclaimer

   EN    FR    IT 

 










Legend :    VFR   Marginal VFR   IFR   Intensive IFR   Very Intensive IFR
Visi :
Ceiling :
>= 8 km
>= 3000ft
5 to 8 km
1000 to 3000 ft
1500m to 5 km
500 to 1000 ft
800 to 1500m
200 to 500 ft
< 800m
< 200 ft
Symbols :   Thunderstorms  Fog  Heavy snow  Heavy precipitations  Wind > 20 kt
SIGMETs :     Misc.  Thunderstorms  Icing  Turbulence  Mountain Waves  Volcanic Ashes






- Airport Elevation : 17 ft
- IATA code : KLR


ESMQ - Kalmar

CURRENT METAR :
  • 180320Z AUTO 17002KT 0500 R16/1400N R34/P1500N BR FEW011/// SCT050/// BKN076/// 11/11 Q1011

EXPIRED METARs :
  • 180250Z AUTO 17003KT 2400 BR SCT012/// OVC079/// 11/11 Q1011
  • 180220Z AUTO 16004KT 5000 BR FEW013/// OVC077/// 11/11 Q1011
  • 180150Z AUTO 17004KT 2100 BR FEW019/// BKN077/// 12/12 Q1011
  • 180120Z AUTO 18003KT 9999 BKN014/// 12/12 Q1011
  • 180050Z AUTO 23005KT 9999 FEW007/// SCT009/// BKN071/// 13/12 Q1011
  • 180020Z AUTO 23005KT 9999 FEW004/// OVC006/// 13/13 Q1011

Expired Forecast.



MET'MAP, your aeronautical weather chart ! - Copyright ORBIFLY December 2007 - Disclaimer

ORBIFLY MET'MAP TEAM :

Programming & Development : Alexandra Zaïnal
Concept & Development : Baudouin d'Aumeries
Co-Development & Prog : Marc-Olivier Méhu
Technical & hardware support : Manuel Goepfert

Contact : metmap@orbifly.com




SOURCES & CREDITS :

   NOAA